• Join FlightAware (Why Join?)
  • Login
  • US Flag 
05:56PM EDT


 

Airport Tracker/Info


-or-


 

Live Flight TrackerFlight Track Log ✈ BMG104 ✈ 03-May-2013 ✈ CYYT - CYYZ

Flight Track Log - Related Links

Times and Time Zones

All times are in EDT time to prevent confusion due to time zone crossing. See the BMG104 flight status page for this flight to view local times or setup timezone preferences in your user account.

Time Position Orientation Groundspeed Altitude Reporting Facility
EDT Latitude Longitude Course Direction KTS MPH feet Rate Location/Type
11:27PM 47.6167 -52.6167 161° South 180 207 2,400  Level Gander Center
11:28PM 47.5500 -52.5833 161° South 220 253 5,800 3,000 Climbing Gander Center
11:29PM 47.5167 -52.6667 239° Southwest 280 322 8,400 2,460 Climbing Gander Center
11:30PM 47.5000 -52.7833 258° West 310 357 10,800 1,980 Climbing Gander Center
11:31PM 47.5000 -52.9333 270° West 350 403 12,400 1,680 Climbing Gander Center
11:32PM 47.5000 -53.0833 270° West 380 437 14,200 1,860 Climbing Gander Center
11:33PM 47.4667 -53.2500 254° West 390 449 16,200 2,040 Climbing Gander Center
11:34PM 47.4667 -53.4167 270° West 400 460 18,300 1,860 Climbing Gander Center
11:35PM 47.4667 -53.5667 270° West 390 449 20,000 1,980 Climbing Gander Center
11:35PM 47.4500 -53.6333 250° West 390 449 21,000 2,460 Climbing Moncton Center
11:36PM 47.4333 -53.7833 261° West 390 449 23,300 2,280 Climbing Moncton Center
11:37PM 47.4333 -53.9000 270° West 390 449 24,800 1,920 Climbing Gander Center
11:38PM 47.4333 -54.0667 270° West 400 460 26,500 1,500 Climbing Gander Center
11:39PM 47.4167 -54.2167 261° West 410 472 27,900 1,500 Climbing Gander Center
11:40PM 47.4167 -54.3833 270° West 420 483 29,500 1,500 Climbing Gander Center
11:40PM 47.4167 -54.4667 270° West 420 483 29,900 1,380 Climbing Moncton Center
11:41PM 47.4167 -54.6333 270° West 420 483 31,400 1,500 Climbing Moncton Center
11:42PM 47.4167 -54.8167 270° West 420 483 32,900 1,440 Climbing Moncton Center
11:43PM 47.4167 -54.9667 270° West 420 483 34,300 1,500 Climbing Moncton Center
11:44PM 47.3833 -55.1667 256° West 410 472 35,900 840 Climbing Moncton Center
11:45PM 47.3833 -55.3167 270° West 410 472 36,000  Climbing Moncton Center
11:46PM 47.3833 -55.4833 270° West 430 495 36,000  Level Moncton Center
11:47PM 47.3833 -55.6667 270° West 450 518 36,000  Level Moncton Center
11:48PM 47.3667 -55.8667 263° West 460 529 36,000 480 Level Moncton Center
11:49PM 47.3667 -56.0667 270° West 460 529 37,000 1,080 Climbing Moncton Center
11:50PM 47.3667 -56.1833 270° West 450 518 37,800 600 Climbing Gander Center
11:51PM 47.3500 -56.3500 262° West 440 506 38,000 120 Climbing Gander Center
11:51PM 47.3500 -56.4000 270° West 440 506 38,000  Level Moncton Center
11:52PM 47.3333 -56.6167 264° West 460 529 38,000  Level Moncton Center
11:53PM 47.3333 -56.8000 270° West 460 529 38,000  Level Moncton Center
11:54PM 47.3167 -56.9833 262° West 460 529 38,000  Level Moncton Center
11:55PM 47.3167 -57.1833 270° West 470 541 38,000  Level Moncton Center
11:56PM 47.3167 -57.3833 270° West 470 541 38,000  Level Moncton Center
11:57PM 47.3167 -57.5833 270° West 470 541 38,000  Level Moncton Center
11:58PM 47.3000 -57.7500 262° West 470 541 38,000  Level Moncton Center
11:59PM 47.3000 -57.8833 270° West 470 541 38,000  Level Gander Center
12:00AM 47.3000 -58.0833 270° West 470 541 38,000  Level Gander Center
12:00AM 47.3000 -58.1500 270° West 480 552 38,000  Level Moncton Center
12:01AM 47.2833 -58.2833 260° West 470 541 38,000  Level Gander Center
12:02AM 47.2833 -58.4833 270° West 470 541 38,000  Level Gander Center
12:02AM 47.2833 -58.5500 270° West 480 552 38,000  Level Moncton Center
12:03AM 47.2667 -58.7167 262° West 470 541 38,000  Level Moncton Center
12:04AM 47.2667 -58.9167 270° West 470 541 38,000  Level Moncton Center
12:05AM 47.2500 -59.1167 263° West 470 541 38,000  Level Moncton Center
12:06AM 47.2333 -59.3000 262° West 460 529 38,000  Level Moncton Center
12:07AM 47.2333 -59.4833 270° West 470 541 38,000  Level Moncton Center
12:08AM 47.2167 -59.6833 263° West 470 541 38,000  Level Moncton Center
12:09AM 47.2167 -59.8833 270° West 470 541 38,000  Level Moncton Center
12:10AM 47.2000 -60.0833 263° West 470 541 38,000  Level Moncton Center
12:11AM 47.1833 -60.2000 258° West 470 541 38,000  Level Gander Center
12:12AM 47.2000 -60.4000 277° West 470 541 38,000  Level Gander Center
12:12AM 47.1833 -60.4500 244° Southwest 470 541 38,000  Level Moncton Center
12:13AM 47.1667 -60.6500 263° West 490 564 38,000  Level Moncton Center
12:14AM 47.1667 -60.8500 270° West 470 541 38,000  Level Moncton Center
12:15AM 47.1500 -61.0167 262° West 470 541 38,000  Level Moncton Center
12:16AM 47.1333 -61.2167 263° West 470 541 38,000  Level Moncton Center
12:17AM 47.1333 -61.4167 270° West 470 541 38,000  Level Moncton Center
12:18AM 47.1167 -61.6167 263° West 470 541 38,000  Level Moncton Center
12:19AM 47.1000 -61.7833 262° West 460 529 38,000  Level Moncton Center
12:20AM 47.0833 -61.9833 263° West 470 541 38,000  Level Moncton Center
12:21AM 47.0833 -62.1833 270° West 470 541 38,000  Level Moncton Center
12:22AM 47.0667 -62.3833 263° West 470 541 38,000  Level Moncton Center
12:23AM 47.0500 -62.5500 262° West 470 541 38,000  Level Moncton Center
12:24AM 47.0333 -62.7500 263° West 470 541 38,000  Level Moncton Center
12:25AM 47.0167 -62.9500 263° West 470 541 38,000  Level Moncton Center
12:26AM 47.0000 -63.1167 262° West 470 541 38,000  Level Moncton Center
12:27AM 47.0000 -63.3500 270° West 470 541 38,000  Level Moncton Center
12:28AM 46.9833 -63.5167 262° West 480 552 38,000  Level Moncton Center
12:29AM 46.9500 -63.6500 250° West 480 552 38,000  Level Gander Center
12:30AM 46.9500 -63.8500 270° West 480 552 38,000  Level Gander Center
12:30AM 46.9500 -63.9000 270° West 480 552 38,000  Level Moncton Center
12:31AM 46.9167 -64.1333 258° West 490 564 38,000  Level Moncton Center
12:32AM 46.9000 -64.3000 262° West 480 552 38,000  Level Moncton Center
12:33AM 46.8833 -64.5167 264° West 490 564 38,000  Level Moncton Center
12:34AM 46.8667 -64.6833 262° West 490 564 38,000  Level Moncton Center
12:35AM 46.8500 -64.9167 264° West 490 564 38,000  Level Moncton Center
12:36AM 46.8333 -65.1000 262° West 490 564 38,000  Level Moncton Center
12:37AM 46.8167 -65.2833 262° West 490 564 38,000  Level Moncton Center
12:38AM 46.7833 -65.5000 257° West 490 564 38,000  Level Moncton Center
12:39AM 46.7667 -65.7000 263° West 490 564 38,000  Level Moncton Center
12:40AM 46.7500 -65.8833 263° West 490 564 38,000  Level Moncton Center
12:41AM 46.7333 -66.0833 263° West 490 564 38,000  Level Moncton Center
12:42AM 46.7167 -66.2833 263° West 490 564 38,000  Level Moncton Center
12:43AM 46.7000 -66.4667 263° West 490 564 38,000  Level Moncton Center
12:44AM 46.6667 -66.6667 256° West 490 564 38,000  Level Moncton Center
12:45AM 46.6333 -66.8667 256° West 490 564 38,000  Level Moncton Center
12:46AM 46.6167 -67.0833 264° West 490 564 38,000  Level Moncton Center
12:47AM 46.6000 -67.2500 262° West 490 564 38,000  Level Moncton Center
12:48AM 46.5667 -67.4333 255° West 490 564 38,000  Level Moncton Center
12:49AM 46.5500 -67.6333 263° West 480 552 38,000 -60 Level Moncton Center
12:50AM 46.5478 -67.8003 269° West 490 564 37,900 -60 Descending Boston Center
12:51AM 46.5239 -67.9922 260° West 490 564 37,900 120 Level Boston Center
12:52AM 46.4997 -68.1811 260° West 490 564 38,200 660 Climbing Boston Center
12:53AM 46.4772 -68.3669 260° West 477 549 39,300 900 Climbing Boston Center
12:54AM 46.4561 -68.5461 260° West 465 535 40,000 300 Climbing Boston Center
12:55AM 46.4308 -68.7225 258° West 459 528 40,000  Level Boston Center
12:56AM 46.4122 -68.8683 260° West 454 522 40,000  Level Boston Center
12:57AM 46.3833 -69.0867 259° West 454 522 40,000 -60 Level Boston Center
12:58AM 46.3536 -69.2869 258° West 459 528 39,900 -60 Descending Boston Center
12:59AM 46.3272 -69.4717 258° West 464 534 39,900  Level Boston Center
01:00AM 46.3025 -69.6561 259° West 470 541 39,900  Level Boston Center
01:01AM 46.2775 -69.8406 259° West 470 541 39,900  Level Boston Center
01:02AM 46.2483 -70.0281 257° West 470 541 39,900  Level Boston Center
01:03AM 46.2000 -70.1667 243° Southwest 470 541 40,000  Climbing Montreal Center
01:04AM 46.1667 -70.3500 255° West 470 541 40,000  Level Montreal Center
01:05AM 46.1333 -70.5500 257° West 470 541 40,000  Level Montreal Center
01:06AM 46.0833 -70.7167 247° West 470 541 40,000  Level Montreal Center
01:07AM 46.0667 -70.9000 263° West 460 529 40,000  Level Montreal Center
01:08AM 46.0167 -71.0667 247° West 460 529 40,000  Level Montreal Center
01:09AM 45.9667 -71.2333 247° West 460 529 40,000  Level Montreal Center
01:10AM 45.9500 -71.4167 263° West 460 529 40,000  Level Montreal Center
01:11AM 45.9000 -71.5833 247° West 460 529 40,000  Level Montreal Center
01:12AM 45.8667 -71.7500 254° West 460 529 40,000  Level Montreal Center
01:13AM 45.8167 -71.9500 250° West 460 529 40,000  Level Montreal Center
01:14AM 45.7833 -72.1000 252° West 450 518 40,000  Level Montreal Center
01:15AM 45.7500 -72.3000 257° West 450 518 40,000  Level Montreal Center
01:16AM 45.7000 -72.4667 247° West 450 518 40,000  Level Montreal Center
01:17AM 45.6667 -72.6333 254° West 450 518 40,000  Level Montreal Center
01:18AM 45.6333 -72.8000 254° West 450 518 40,000  Level Montreal Center
01:19AM 45.6000 -72.9500 252° West 450 518 40,000  Level Montreal Center
01:20AM 45.5500 -73.1500 250° West 450 518 40,000  Level Montreal Center
01:21AM 45.5167 -73.2833 250° West 450 518 40,000  Level Montreal Center
01:22AM 45.4667 -73.4833 250° West 450 518 40,000  Level Montreal Center
01:23AM 45.4333 -73.6333 252° West 450 518 40,000  Level Montreal Center
01:24AM 45.3833 -73.8000 247° West 450 518 40,000  Level Montreal Center
01:25AM 45.3333 -73.9667 247° West 450 518 40,000  Level Montreal Center
01:26AM 45.3167 -74.1333 262° West 450 518 40,000  Level Montreal Center
01:27AM 45.2667 -74.3000 247° West 440 506 40,000  Level Montreal Center
01:28AM 45.2333 -74.4667 254° West 440 506 40,000  Level Montreal Center
01:29AM 45.1833 -74.6333 247° West 440 506 40,000  Level Montreal Center
01:30AM 45.1333 -74.8000 247° West 440 506 40,000  Level Montreal Center
01:31AM 45.1000 -74.9500 253° West 440 506 40,000  Level Montreal Center
01:32AM 45.0500 -75.1167 247° West 440 506 40,000  Level Montreal Center
01:33AM 45.0167 -75.2833 254° West 440 506 40,000  Level Montreal Center
01:34AM 44.9667 -75.4500 247° West 440 506 40,000  Level Montreal Center
01:35AM 44.9167 -75.6167 247° West 440 506 40,000  Level Montreal Center
01:36AM 44.8833 -75.7833 254° West 440 506 40,000  Level Montreal Center
01:37AM 44.8500 -75.9167 251° West 430 495 40,000  Level Montreal Center
01:38AM 44.8000 -76.0833 247° West 430 495 40,000  Level Montreal Center
01:39AM 44.7500 -76.2500 247° West 430 495 40,000  Level Montreal Center
01:40AM 44.7167 -76.4167 254° West 430 495 40,000  Level Montreal Center
01:40AM 44.6833 -76.4667 227° Southwest 430 495 40,000  Level Toronto Center
01:41AM 44.6500 -76.6000 251° West 430 495 40,000  Level Toronto Center
01:42AM 44.6333 -76.7167 259° West 430 495 40,000  Level Montreal Center
01:43AM 44.5833 -76.8667 245° Southwest 430 495 40,000  Level Montreal Center
01:44AM 44.5500 -77.0167 253° West 430 495 40,000  Level Montreal Center
01:45AM 44.5000 -77.1833 247° West 430 495 40,000 -540 Level Montreal Center
01:46AM 44.4667 -77.3333 253° West 430 495 39,000 -1,560 Descending Montreal Center
01:46AM 44.4333 -77.4167 241° Southwest 430 495 37,600 -2,280 Descending Toronto Center
01:47AM 44.3833 -77.5500 242° Southwest 430 495 35,500 -2,160 Descending Toronto Center
01:48AM 44.3333 -77.7167 247° West 440 506 33,300 -2,160 Descending Toronto Center
01:49AM 44.2833 -77.8667 245° Southwest 440 506 31,200 -2,220 Descending Toronto Center
01:50AM 44.2333 -78.0333 247° West 420 483 28,900 -2,220 Descending Toronto Center
01:51AM 44.1833 -78.1667 242° Southwest 410 472 26,800 -2,100 Descending Toronto Center
01:52AM 44.1500 -78.3000 251° West 400 460 24,700 -2,160 Descending Toronto Center
01:53AM 44.1000 -78.4500 245° Southwest 390 449 22,500 -2,100 Descending Toronto Center
01:54AM 44.0667 -78.5667 248° West 380 437 20,600 -1,860 Descending Toronto Center
01:55AM 44.0333 -78.7000 251° West 370 426 18,800 -1,620 Descending Toronto Center
01:56AM 43.9833 -78.8167 239° Southwest 360 414 17,400 -1,620 Descending Toronto Center
01:57AM 43.9500 -78.9667 253° West 340 391 15,600 -1,800 Descending Toronto Center
01:58AM 43.9000 -79.0500 230° Southwest 320 368 13,900 -1,800 Descending Toronto Center
01:59AM 43.8667 -79.1667 248° West 310 357 12,100 -1,800 Descending Toronto Center
02:00AM 43.8167 -79.2667 235° Southwest 300 345 10,400 -1,740 Descending Toronto Center
02:01AM 43.7667 -79.3500 230° Southwest 290 334 8,700 -1,800 Descending Toronto Center
02:02AM 43.7333 -79.4500 245° Southwest 280 322 6,900 -1,380 Descending Toronto Center
02:03AM 43.7333 -79.5333 270° West 260 299 6,000 -480 Descending Toronto Center
02:04AM 43.7333 -79.6333 270° West 220 253 6,000 -540 Level Toronto Center
02:05AM 43.7167 -79.7000 251° West 200 230 5,000 -1,020 Descending Toronto Center
02:06AM 43.7000 -79.7500 245° Southwest 190 219 4,000 -1,020 Descending Toronto Center
02:07AM 43.6667 -79.8167 235° Southwest 180 207 3,000 -540 Descending Toronto Center
02:08AM 43.6333 -79.8333 200° South 150 173 3,000  Level Toronto Center
02:09AM 43.6000 -79.8667 216° Southwest 160 184 3,000  Level Toronto Center
02:10AM 43.5667 -79.8000 125° Southeast 160 184 3,000 -300 Level Toronto Center
02:11AM 43.6000 -79.7500 47° Northeast 180 207 2,500 -720 Descending Toronto Center
02:12AM 43.6333 -79.7000 47° Northeast 170 196 1,600 -900 Descending Toronto Center
02:13AM 43.6500 -79.6500 65° Northeast 150 173 800 -840 Descending Toronto Center
02:15AM 43.6667 -79.6167 36° Northeast  Level FlightAware Approximate